Time;durP1;ratioP1;P1;durP2;ratioP2;P2;SDS_P1;SDS_P2;PMS_P1;PMS_P2;Temp;Humidity;BMP_temperature;BMP_pressure;BME280_temperature;BME280_humidity;BME280_pressure;Samples;Min_cycle;Max_cycle;Signal;HPM_P1;HPM_P2
2023/08/13 00:00:08;;;;;;;2.43;1.80;;;18.30;99.90;;;;;;5105021;28;20177;-73
2023/08/13 00:02:35;;;;;;;2.10;1.83;;;18.40;99.90;;;;;;5124272;28;20701;-73
2023/08/13 00:05:01;;;;;;;3.33;2.57;;;18.40;99.90;;;;;;5123202;28;20403;-73
2023/08/13 00:07:27;;;;;;;5.27;3.40;;;18.50;99.90;;;;;;5105005;28;20435;-74
2023/08/13 00:09:52;;;;;;;4.23;2.33;;;18.60;99.90;;;;;;5104461;28;20453;-73
2023/08/13 00:12:17;;;;;;;4.90;2.40;;;18.70;99.90;;;;;;5104539;28;20185;-71
2023/08/13 00:14:43;;;;;;;2.97;1.93;;;18.80;99.90;;;;;;5122465;28;20173;-74
2023/08/13 00:17:09;;;;;;;2.50;2.20;;;18.80;99.90;;;;;;5104321;28;20168;-73
2023/08/13 00:19:35;;;;;;;3.70;2.07;;;18.90;99.90;;;;;;5122189;28;20241;-73
2023/08/13 00:22:00;;;;;;;4.57;2.10;;;18.90;99.90;;;;;;5122011;28;20458;-72
2023/08/13 00:24:26;;;;;;;2.37;1.90;;;19.00;99.90;;;;;;5123509;28;20173;-72
2023/08/13 00:26:51;;;;;;;4.23;1.93;;;19.00;99.90;;;;;;5104728;28;20169;-73
2023/08/13 00:29:17;;;;;;;3.90;2.17;;;19.00;99.90;;;;;;5104973;28;20172;-73
2023/08/13 00:31:43;;;;;;;2.17;1.87;;;19.00;99.90;;;;;;5104746;28;20188;-73
2023/08/13 00:34:08;;;;;;;4.70;2.13;;;18.90;99.90;;;;;;5123125;28;20172;-72
2023/08/13 00:36:33;;;;;;;2.70;2.00;;;18.90;99.90;;;;;;5122713;28;20184;-72
2023/08/13 00:38:59;;;;;;;2.90;1.80;;;18.90;99.90;;;;;;5122857;28;20192;-73
2023/08/13 00:41:25;;;;;;;3.77;1.80;;;18.80;99.90;;;;;;5084880;28;20220;-72
2023/08/13 00:43:50;;;;;;;3.83;2.30;;;18.80;99.90;;;;;;5064650;28;20178;-73
2023/08/13 00:46:16;;;;;;;3.23;1.87;;;18.80;99.90;;;;;;5081814;28;20232;-74
2023/08/13 00:48:42;;;;;;;7.40;2.80;;;18.80;99.90;;;;;;5063654;28;20698;-74
2023/08/13 00:51:09;;;;;;;4.23;2.27;;;18.80;99.90;;;;;;5065535;28;20209;-73
2023/08/13 00:53:45;;;;;;;2.07;1.77;;;18.80;99.90;;;;;;5082631;28;20223;-72
2023/08/13 00:56:10;;;;;;;3.37;2.20;;;18.80;99.90;;;;;;5082303;28;20422;-74
2023/08/13 00:58:36;;;;;;;2.37;1.93;;;18.80;99.90;;;;;;5064798;28;20412;-73
2023/08/13 01:01:01;;;;;;;3.07;2.00;;;18.80;99.90;;;;;;5064862;28;20201;-73
2023/08/13 01:03:27;;;;;;;2.40;2.17;;;18.80;99.90;;;;;;5083143;28;20240;-71
2023/08/13 01:06:14;;;;;;;3.20;2.07;;;18.80;99.90;;;;;;5082214;28;20181;-73
2023/08/13 01:08:59;;;;;;;2.40;2.13;;;18.80;99.90;;;;;;5082013;28;20174;-72
2023/08/13 01:11:53;;;;;;;8.63;1.97;;;18.80;99.90;;;;;;5064157;28;20494;-71
2023/08/13 01:14:27;;;;;;;2.93;2.00;;;18.70;99.90;;;;;;5083078;28;20408;-73
2023/08/13 01:16:55;;;;;;;3.30;2.23;;;18.60;99.90;;;;;;5064744;28;20438;-72
2023/08/13 01:19:21;;;;;;;3.17;2.00;;;18.60;99.90;;;;;;5065388;28;20416;-73
2023/08/13 01:21:47;;;;;;;1.77;1.67;;;18.60;99.90;;;;;;5081560;28;20428;-73
2023/08/13 01:24:12;;;;;;;7.77;2.30;;;18.50;99.90;;;;;;5081560;28;20480;-72
2023/08/13 01:27:02;;;;;;;3.43;1.93;;;18.50;99.90;;;;;;5080984;28;20196;-72
2023/08/13 01:30:04;;;;;;;3.10;2.17;;;18.40;99.90;;;;;;5082177;28;20205;-73
2023/08/13 01:32:36;;;;;;;10.73;2.67;;;18.40;99.90;;;;;;5063069;28;20427;-72
2023/08/13 01:35:04;;;;;;;3.63;1.80;;;18.20;99.90;;;;;;5081395;28;20973;-72
2023/08/13 01:37:29;;;;;;;1.60;1.33;;;18.20;99.90;;;;;;5063364;28;20404;-73
2023/08/13 01:39:55;;;;;;;6.73;2.30;;;18.10;99.90;;;;;;5063408;28;20456;-73
2023/08/13 01:42:21;;;;;;;2.50;1.63;;;18.10;99.90;;;;;;5093029;28;20658;-72
2023/08/13 01:44:46;;;;;;;2.33;1.70;;;18.00;99.90;;;;;;5099184;28;20268;-72
2023/08/13 01:47:12;;;;;;;2.10;1.60;;;18.00;99.90;;;;;;5113129;28;20191;-72
2023/08/13 01:49:37;;;;;;;1.97;1.43;;;17.90;99.90;;;;;;5120537;28;20209;-73
2023/08/13 01:52:03;;;;;;;2.23;1.70;;;17.90;99.90;;;;;;5088161;28;20211;-73
2023/08/13 01:54:29;;;;;;;6.90;1.97;;;17.80;99.90;;;;;;5079224;28;20169;-72
2023/08/13 01:56:55;;;;;;;3.07;2.37;;;17.70;99.90;;;;;;5108858;28;20892;-72
2023/08/13 01:59:20;;;;;;;5.10;1.80;;;17.70;99.90;;;;;;5082757;28;20400;-73
2023/08/13 02:01:46;;;;;;;3.53;2.00;;;17.60;99.90;;;;;;5100721;28;20249;-73
2023/08/13 02:04:11;;;;;;;4.03;1.90;;;17.50;99.90;;;;;;5115907;28;20180;-73
2023/08/13 02:06:37;;;;;;;4.63;2.33;;;17.40;99.90;;;;;;5118716;28;20184;-72
2023/08/13 02:09:03;;;;;;;2.13;1.90;;;17.30;99.90;;;;;;5081990;28;20260;-72
2023/08/13 02:11:29;;;;;;;3.03;1.90;;;17.20;99.90;;;;;;5100948;28;20198;-73
2023/08/13 02:13:55;;;;;;;5.70;2.40;;;17.20;99.90;;;;;;5082841;28;20415;-72
2023/08/13 02:16:21;;;;;;;2.57;1.93;;;17.10;99.90;;;;;;5082047;28;20184;-74
2023/08/13 02:18:46;;;;;;;2.67;2.30;;;17.00;99.90;;;;;;5099824;28;20185;-74
2023/08/13 02:21:12;;;;;;;2.43;2.13;;;17.00;99.90;;;;;;5115374;28;20488;-73
2023/08/13 02:23:37;;;;;;;2.50;1.80;;;17.00;99.90;;;;;;5102464;28;20246;-74
2023/08/13 02:26:03;;;;;;;4.73;2.10;;;17.00;99.90;;;;;;5121681;28;20165;-72
2023/08/13 02:28:28;;;;;;;3.37;2.00;;;17.00;99.90;;;;;;5105841;28;20764;-74
2023/08/13 02:30:54;;;;;;;3.10;2.77;;;17.00;99.90;;;;;;5112290;28;20228;-73
2023/08/13 02:33:19;;;;;;;2.80;2.20;;;17.00;99.90;;;;;;5120709;28;20161;-74
2023/08/13 02:35:45;;;;;;;4.30;2.10;;;17.00;99.90;;;;;;5102279;28;20667;-74
2023/08/13 02:38:10;;;;;;;6.57;2.17;;;17.00;99.90;;;;;;5108128;28;20233;-74
2023/08/13 02:40:36;;;;;;;3.60;2.30;;;17.00;99.90;;;;;;5091505;28;20173;-73
2023/08/13 02:43:02;;;;;;;3.40;2.20;;;17.00;99.90;;;;;;5103509;28;20173;-73
2023/08/13 02:45:28;;;;;;;1.70;1.50;;;16.90;99.90;;;;;;5120771;28;20169;-74
2023/08/13 02:47:54;;;;;;;2.77;2.00;;;16.90;99.90;;;;;;5088337;28;20561;-74
2023/08/13 02:50:19;;;;;;;1.83;1.50;;;16.90;99.90;;;;;;5107374;28;20685;-73
2023/08/13 02:52:45;;;;;;;1.77;1.67;;;16.90;99.90;;;;;;5122851;28;20248;-73
2023/08/13 02:55:10;;;;;;;2.67;1.77;;;16.90;99.90;;;;;;5120952;28;20169;-74
2023/08/13 02:57:36;;;;;;;3.10;2.30;;;16.80;99.90;;;;;;5114136;28;20174;-74
2023/08/13 03:00:02;;;;;;;2.00;1.80;;;16.80;99.90;;;;;;5094181;28;20213;-74
2023/08/13 03:02:28;;;;;;;2.43;1.67;;;16.70;99.90;;;;;;5099392;28;20208;-72
2023/08/13 03:04:53;;;;;;;2.20;1.87;;;16.70;99.90;;;;;;5089011;28;20422;-70
2023/08/13 03:07:19;;;;;;;4.03;2.30;;;16.60;99.90;;;;;;5124307;28;20192;-74
2023/08/13 03:09:44;;;;;;;3.57;1.83;;;16.50;99.90;;;;;;5125242;28;20192;-73
2023/08/13 03:12:10;;;;;;;2.10;1.73;;;16.50;99.90;;;;;;5090428;28;20194;-73
2023/08/13 03:14:36;;;;;;;5.87;2.20;;;16.40;99.90;;;;;;5121474;28;20176;-74
2023/08/13 03:17:01;;;;;;;2.10;1.90;;;16.40;99.90;;;;;;5107150;28;20165;-73
2023/08/13 03:19:27;;;;;;;7.33;2.10;;;16.30;99.90;;;;;;5125628;28;20165;-74
2023/08/13 03:21:52;;;;;;;2.87;1.83;;;16.30;99.90;;;;;;5092664;28;20605;-72
2023/08/13 03:24:18;;;;;;;1.83;1.73;;;16.30;99.90;;;;;;5119034;28;20180;-74
2023/08/13 03:26:43;;;;;;;2.80;2.40;;;16.20;99.90;;;;;;5124542;28;20173;-74
2023/08/13 03:29:09;;;;;;;7.27;2.30;;;16.20;99.90;;;;;;5123638;28;20636;-74
2023/08/13 03:31:34;;;;;;;2.30;2.10;;;16.10;99.90;;;;;;5110491;28;20194;-74
2023/08/13 03:34:00;;;;;;;3.00;1.83;;;16.10;99.90;;;;;;5075168;28;20350;-70
2023/08/13 03:36:25;;;;;;;3.30;2.40;;;16.10;99.90;;;;;;5083351;28;20249;-74
2023/08/13 03:38:51;;;;;;;3.20;2.10;;;16.00;99.90;;;;;;5093212;28;20655;-73
2023/08/13 03:41:16;;;;;;;3.20;2.43;;;16.00;99.90;;;;;;5079444;28;20213;-74
2023/08/13 03:43:42;;;;;;;3.73;2.33;;;15.90;99.90;;;;;;5101372;28;20180;-74
2023/08/13 03:46:07;;;;;;;2.70;2.30;;;15.90;99.90;;;;;;5103914;28;20177;-74
2023/08/13 03:48:33;;;;;;;8.60;2.53;;;15.80;99.90;;;;;;5105116;28;20173;-73
2023/08/13 03:50:58;;;;;;;1.90;1.80;;;15.70;99.90;;;;;;5114862;28;20210;-74
2023/08/13 03:53:24;;;;;;;7.90;2.37;;;15.70;99.90;;;;;;5079574;28;20688;-74
2023/08/13 03:55:50;;;;;;;5.90;2.40;;;15.60;99.90;;;;;;5087603;28;20214;-74
2023/08/13 03:58:16;;;;;;;3.40;2.50;;;15.70;99.90;;;;;;5121428;28;20169;-74
2023/08/13 04:00:42;;;;;;;4.10;2.70;;;15.60;99.90;;;;;;5100587;28;20426;-74
2023/08/13 04:03:09;;;;;;;3.10;2.80;;;15.70;99.90;;;;;;5076835;28;20494;-72
2023/08/13 04:05:35;;;;;;;3.33;2.23;;;15.60;99.90;;;;;;5119470;28;20185;-73
2023/08/13 04:08:00;;;;;;;3.93;2.47;;;15.60;99.90;;;;;;5122132;28;20923;-73
2023/08/13 04:10:26;;;;;;;2.30;2.00;;;15.60;99.90;;;;;;5121993;28;20228;-73
2023/08/13 04:12:52;;;;;;;2.53;1.80;;;15.60;99.90;;;;;;5100328;28;20203;-74
2023/08/13 04:15:17;;;;;;;2.37;2.03;;;15.50;99.90;;;;;;5110527;28;20173;-74
2023/08/13 04:17:43;;;;;;;7.77;2.50;;;15.50;99.90;;;;;;5101436;28;20498;-73
2023/08/13 04:20:10;;;;;;;2.60;2.10;;;15.40;99.90;;;;;;5104486;28;20169;-73
2023/08/13 04:22:35;;;;;;;7.37;2.13;;;15.40;99.90;;;;;;5105184;28;20280;-74
2023/08/13 04:25:01;;;;;;;5.63;3.60;;;15.40;99.90;;;;;;5113500;28;20465;-74
2023/08/13 04:27:26;;;;;;;2.93;2.20;;;15.40;99.90;;;;;;5122446;28;20172;-73
2023/08/13 04:29:52;;;;;;;6.73;2.10;;;15.40;99.90;;;;;;5121942;28;20669;-73
2023/08/13 04:32:17;;;;;;;4.60;2.20;;;15.40;99.90;;;;;;5107884;28;20255;-74
2023/08/13 04:34:43;;;;;;;3.40;2.63;;;15.40;99.90;;;;;;5093933;28;20191;-73
2023/08/13 04:37:08;;;;;;;4.43;2.00;;;15.40;99.90;;;;;;5104701;28;20176;-73
2023/08/13 04:39:34;;;;;;;3.27;2.27;;;15.40;99.90;;;;;;5104672;28;20173;-72
2023/08/13 04:42:00;;;;;;;2.27;2.07;;;15.40;99.90;;;;;;5110059;28;20201;-74
2023/08/13 04:44:26;;;;;;;2.20;2.00;;;15.50;99.90;;;;;;5109571;28;20177;-74
2023/08/13 04:46:52;;;;;;;4.00;2.30;;;15.50;99.90;;;;;;5103873;28;20613;-73
2023/08/13 04:49:17;;;;;;;2.80;2.60;;;15.50;99.90;;;;;;5104099;28;20458;-73
2023/08/13 04:51:43;;;;;;;5.27;2.73;;;15.60;99.90;;;;;;5112261;28;20662;-73
2023/08/13 04:54:08;;;;;;;5.43;3.23;;;15.60;99.90;;;;;;5083810;28;20193;-74
2023/08/13 04:56:34;;;;;;;3.57;2.80;;;15.60;99.90;;;;;;5083238;28;20177;-74
2023/08/13 04:58:59;;;;;;;4.03;2.70;;;15.70;99.90;;;;;;5084247;28;20308;-73
2023/08/13 05:01:25;;;;;;;6.70;3.13;;;15.80;99.90;;;;;;5077878;28;20270;-74
2023/08/13 05:03:50;;;;;;;7.87;3.03;;;16.00;99.90;;;;;;5085014;28;20242;-74
2023/08/13 05:06:16;;;;;;;8.73;2.70;;;16.00;99.90;;;;;;5104261;28;20200;-74
2023/08/13 05:08:41;;;;;;;9.53;4.00;;;16.10;99.90;;;;;;5104187;28;20199;-74
2023/08/13 05:11:07;;;;;;;12.80;3.17;;;16.20;99.90;;;;;;5117085;28;20228;-73
2023/08/13 05:13:33;;;;;;;4.80;3.23;;;16.30;99.90;;;;;;5084331;28;20170;-74
2023/08/13 05:15:59;;;;;;;5.03;3.73;;;16.40;99.90;;;;;;5063783;28;20211;-74
2023/08/13 05:18:24;;;;;;;3.30;2.90;;;16.60;99.90;;;;;;5064042;28;20464;-74
2023/08/13 05:20:50;;;;;;;4.63;2.93;;;16.70;99.90;;;;;;5081268;28;20186;-73
2023/08/13 05:23:16;;;;;;;7.87;3.07;;;16.80;99.90;;;;;;5101020;28;20227;-74
2023/08/13 05:25:42;;;;;;;4.03;2.40;;;16.80;99.90;;;;;;5119389;28;20402;-72
2023/08/13 05:28:08;;;;;;;6.57;3.67;;;16.90;99.90;;;;;;5103501;28;20597;-75
2023/08/13 05:30:36;;;;;;;13.10;3.10;;;16.90;99.90;;;;;;5121191;28;20192;-74
2023/08/13 05:33:02;;;;;;;5.20;3.03;;;16.90;99.90;;;;;;5101938;28;20435;-74
2023/08/13 05:35:27;;;;;;;6.50;3.20;;;17.10;99.90;;;;;;5098981;28;20497;-74
2023/08/13 05:37:53;;;;;;;5.37;2.87;;;17.10;99.90;;;;;;5104143;28;20319;-75
2023/08/13 05:40:18;;;;;;;5.50;2.50;;;17.30;99.90;;;;;;5121915;28;20180;-73
2023/08/13 05:42:46;;;;;;;6.50;2.90;;;17.50;99.90;;;;;;5104268;28;20181;-73
2023/08/13 05:45:12;;;;;;;4.83;2.33;;;17.60;99.90;;;;;;5086996;28;20613;-74
2023/08/13 05:47:37;;;;;;;4.00;3.10;;;17.80;99.90;;;;;;5104666;28;20446;-74
2023/08/13 05:50:03;;;;;;;5.27;2.80;;;18.00;99.90;;;;;;5122051;28;20454;-75
2023/08/13 05:52:29;;;;;;;2.97;2.47;;;18.10;99.90;;;;;;5107384;28;20223;-74
2023/08/13 05:54:55;;;;;;;9.70;2.90;;;18.30;99.90;;;;;;5094984;28;20930;-74
2023/08/13 05:57:21;;;;;;;2.53;2.33;;;18.50;99.90;;;;;;5122470;28;20407;-74
2023/08/13 05:59:46;;;;;;;10.60;6.43;;;18.60;99.90;;;;;;5103782;28;20691;-72
2023/08/13 06:02:12;;;;;;;3.47;2.63;;;18.70;99.90;;;;;;5104198;28;20200;-75
2023/08/13 06:04:37;;;;;;;6.13;2.90;;;18.80;99.90;;;;;;5122020;28;20173;-74
2023/08/13 06:07:03;;;;;;;3.77;2.63;;;18.90;99.90;;;;;;5121700;28;20565;-73
2023/08/13 06:09:30;;;;;;;3.13;2.70;;;18.90;99.90;;;;;;5121587;28;20949;-74
2023/08/13 06:11:55;;;;;;;4.50;2.20;;;19.10;99.90;;;;;;5103754;28;20427;-74
2023/08/13 06:14:21;;;;;;;4.30;2.73;;;19.20;99.90;;;;;;5103647;28;20433;-73
2023/08/13 06:16:47;;;;;;;6.87;2.70;;;19.30;99.90;;;;;;5120981;28;20165;-75
2023/08/13 06:19:12;;;;;;;4.40;2.60;;;19.50;99.90;;;;;;5103482;28;20244;-75
2023/08/13 06:21:38;;;;;;;7.93;2.40;;;19.70;99.90;;;;;;5103640;28;20196;-75
2023/08/13 06:24:05;;;;;;;4.63;2.50;;;19.90;99.90;;;;;;5103008;28;20223;-74
2023/08/13 06:26:31;;;;;;;6.70;2.10;;;20.00;99.90;;;;;;5103157;28;20176;-74
2023/08/13 06:28:57;;;;;;;2.40;2.20;;;20.20;99.90;;;;;;5104035;28;20438;-74
2023/08/13 06:31:23;;;;;;;3.90;2.10;;;20.40;99.90;;;;;;5104238;28;20492;-74
2023/08/13 06:33:48;;;;;;;5.13;2.03;;;20.70;99.90;;;;;;5104044;28;20171;-75
2023/08/13 06:36:14;;;;;;;4.00;2.00;;;21.30;99.90;;;;;;5104369;28;20169;-75
2023/08/13 06:38:39;;;;;;;5.73;2.20;;;21.90;99.90;;;;;;5107781;28;20655;-73
2023/08/13 06:41:05;;;;;;;3.97;2.53;;;22.40;99.90;;;;;;5128732;28;20212;-75
2023/08/13 06:43:32;;;;;;;7.00;2.67;;;22.90;99.90;;;;;;5129984;28;20176;-74
2023/08/13 06:45:59;;;;;;;3.50;1.97;;;23.40;99.90;;;;;;5128770;28;20441;-75
2023/08/13 06:48:26;;;;;;;2.70;1.83;;;23.90;99.90;;;;;;5110106;28;20402;-74
2023/08/13 06:50:55;;;;;;;3.77;2.13;;;24.30;99.90;;;;;;5128442;28;20559;-73
2023/08/13 06:53:22;;;;;;;4.13;2.40;;;24.70;99.90;;;;;;5110729;28;20802;-75
2023/08/13 06:55:47;;;;;;;5.23;2.20;;;24.80;99.90;;;;;;5109508;28;20442;-74
2023/08/13 06:58:13;;;;;;;7.00;2.03;;;24.40;99.90;;;;;;5110162;28;20398;-74
2023/08/13 07:00:40;;;;;;;5.50;2.13;;;24.30;99.90;;;;;;5128980;28;20192;-74
2023/08/13 07:03:07;;;;;;;3.53;2.17;;;24.90;99.90;;;;;;5109922;28;20173;-73
2023/08/13 07:05:32;;;;;;;2.83;1.90;;;25.70;99.90;;;;;;5109803;28;20463;-71
2023/08/13 07:07:58;;;;;;;1.87;1.73;;;26.20;99.90;;;;;;5127834;28;20911;-76
2023/08/13 07:10:23;;;;;;;5.00;1.97;;;26.00;99.90;;;;;;5109692;28;20466;-74
2023/08/13 07:12:49;;;;;;;2.93;2.63;;;26.00;99.90;;;;;;5111677;28;20192;-74
2023/08/13 07:15:15;;;;;;;5.17;2.10;;;25.70;99.90;;;;;;5111561;28;20413;-74
2023/08/13 07:17:40;;;;;;;4.07;2.60;;;25.70;99.90;;;;;;5130162;28;20176;-74
2023/08/13 07:20:09;;;;;;;4.30;2.07;;;26.10;99.90;;;;;;5129064;28;20169;-75
2023/08/13 07:22:37;;;;;;;7.37;2.60;;;26.30;99.90;;;;;;5131094;28;20278;-74
2023/08/13 07:25:03;;;;;;;2.77;2.27;;;27.10;99.90;;;;;;5113775;28;20950;-71
2023/08/13 07:27:28;;;;;;;2.50;2.10;;;28.00;99.90;;;;;;5133987;28;20409;-71
2023/08/13 07:29:54;;;;;;;7.23;2.87;;;28.60;99.90;;;;;;5134615;28;20445;-74
2023/08/13 07:32:19;;;;;;;2.50;1.93;;;29.30;98.10;;;;;;5133134;28;20185;-73
2023/08/13 07:34:45;;;;;;;3.10;2.13;;;30.40;95.70;;;;;;5119142;28;20169;-73
2023/08/13 07:37:10;;;;;;;4.27;2.30;;;30.80;84.70;;;;;;5118853;28;20168;-71
2023/08/13 07:39:36;;;;;;;10.80;2.23;;;31.30;80.50;;;;;;5118894;28;20629;-71
2023/08/13 07:42:03;;;;;;;3.30;2.00;;;32.10;75.40;;;;;;5120029;28;20303;-72
2023/08/13 07:44:28;;;;;;;3.50;2.10;;;32.20;65.60;;;;;;5111241;28;20181;-73
2023/08/13 07:46:58;;;;;;;2.77;1.90;;;32.80;64.40;;;;;;5102983;28;20765;-73
2023/08/13 07:49:24;;;;;;;3.83;2.13;;;33.40;59.10;;;;;;5100660;28;20181;-73
2023/08/13 07:51:50;;;;;;;3.17;2.20;;;33.10;55.60;;;;;;5100074;28;20423;-73
2023/08/13 07:54:16;;;;;;;4.93;2.57;;;32.90;55.40;;;;;;5098842;28;20962;-74
2023/08/13 07:56:41;;;;;;;2.93;2.10;;;32.00;56.60;;;;;;5080892;28;20627;-72
2023/08/13 07:59:07;;;;;;;2.97;2.17;;;31.90;60.20;;;;;;5099250;28;20177;-74
2023/08/13 08:01:33;;;;;;;5.10;2.40;;;32.00;61.60;;;;;;5101041;28;20200;-74
2023/08/13 08:03:58;;;;;;;3.27;2.40;;;31.90;62.30;;;;;;5103239;28;20173;-73
2023/08/13 08:06:24;;;;;;;5.53;2.30;;;31.90;62.50;;;;;;5083549;28;20936;-74
2023/08/13 08:08:50;;;;;;;3.03;2.20;;;31.80;61.60;;;;;;5083659;28;20173;-73
2023/08/13 08:11:15;;;;;;;5.13;4.57;;;32.10;62.70;;;;;;5103103;28;20201;-74
2023/08/13 08:13:42;;;;;;;8.53;2.43;;;32.30;60.00;;;;;;5080731;28;20176;-74
2023/08/13 08:16:08;;;;;;;2.63;2.40;;;32.30;57.20;;;;;;5098085;28;20248;-74
2023/08/13 08:18:34;;;;;;;4.80;2.73;;;32.70;58.40;;;;;;5097361;28;20403;-73
2023/08/13 08:20:59;;;;;;;5.90;2.60;;;32.50;55.80;;;;;;5098767;28;20473;-73
2023/08/13 08:23:25;;;;;;;2.40;1.90;;;32.60;56.70;;;;;;5099023;28;20771;-74
2023/08/13 08:25:50;;;;;;;2.23;2.03;;;32.70;55.70;;;;;;5079803;28;20169;-73
2023/08/13 08:28:16;;;;;;;3.30;2.20;;;32.60;53.90;;;;;;5095805;28;20178;-72
2023/08/13 08:30:42;;;;;;;6.70;2.20;;;32.60;54.50;;;;;;5095381;28;20201;-73
2023/08/13 08:33:07;;;;;;;2.37;2.07;;;33.00;54.70;;;;;;5078076;28;20161;-73
2023/08/13 08:35:33;;;;;;;4.37;2.60;;;33.50;53.40;;;;;;5095716;28;20227;-73
2023/08/13 08:37:59;;;;;;;2.80;1.93;;;33.60;52.10;;;;;;5096914;28;20506;-74
2023/08/13 08:40:26;;;;;;;3.53;2.33;;;33.90;51.20;;;;;;5095244;28;20418;-73
2023/08/13 08:42:52;;;;;;;2.90;2.00;;;33.90;50.70;;;;;;5079752;28;20177;-73
2023/08/13 08:45:21;;;;;;;5.40;2.20;;;34.90;51.10;;;;;;5096117;28;20411;-73
2023/08/13 08:47:49;;;;;;;2.53;2.13;;;35.60;50.00;;;;;;5095456;28;20400;-73
2023/08/13 08:50:16;;;;;;;4.73;2.07;;;36.60;48.40;;;;;;5077838;28;20463;-73
2023/08/13 08:52:42;;;;;;;3.63;1.83;;;37.20;47.00;;;;;;5057967;28;20459;-73
2023/08/13 08:55:10;;;;;;;4.17;1.90;;;37.70;46.10;;;;;;5075797;28;20444;-73
2023/08/13 08:57:37;;;;;;;4.30;2.30;;;37.80;44.40;;;;;;5076917;28;20163;-72
2023/08/13 09:00:04;;;;;;;2.57;2.00;;;38.00;45.40;;;;;;5075141;28;20419;-73
2023/08/13 09:02:30;;;;;;;6.30;1.77;;;37.50;43.10;;;;;;5082148;28;20456;-72
2023/08/13 09:04:56;;;;;;;4.70;2.13;;;37.50;43.30;;;;;;5097945;28;20944;-72
2023/08/13 09:07:32;;;;;;;3.53;2.00;;;37.20;42.60;;;;;;5115187;28;20435;-72
2023/08/13 09:09:58;;;;;;;4.17;1.90;;;36.70;42.70;;;;;;5115995;28;20437;-72
2023/08/13 09:12:24;;;;;;;3.13;2.00;;;36.90;43.00;;;;;;5097464;28;20475;-71
2023/08/13 09:14:54;;;;;;;4.43;2.20;;;36.10;42.00;;;;;;5093889;28;20442;-72
2023/08/13 09:17:24;;;;;;;3.20;1.70;;;35.50;44.60;;;;;;5093886;28;20176;-72
2023/08/13 09:19:50;;;;;;;7.23;3.60;;;34.20;44.30;;;;;;5093646;28;20487;-72
2023/08/13 09:22:15;;;;;;;3.17;2.50;;;33.00;46.10;;;;;;5086108;28;20583;-72
2023/08/13 09:24:41;;;;;;;2.13;1.70;;;32.50;47.90;;;;;;5102777;28;20662;-72
2023/08/13 09:27:08;;;;;;;5.20;2.47;;;31.70;48.60;;;;;;5113596;28;20766;-72
2023/08/13 09:29:37;;;;;;;2.73;1.77;;;31.50;50.10;;;;;;5113564;28;20172;-73
2023/08/13 09:32:03;;;;;;;4.70;2.47;;;31.40;51.50;;;;;;5095174;28;20541;-73
2023/08/13 09:34:30;;;;;;;2.67;1.67;;;32.20;51.70;;;;;;5100520;28;20472;-73
2023/08/13 09:36:56;;;;;;;3.13;1.80;;;33.70;49.80;;;;;;5113544;28;20414;-72
2023/08/13 09:39:26;;;;;;;5.53;1.77;;;36.10;49.00;;;;;;5113711;28;20402;-73
2023/08/13 09:41:52;;;;;;;2.10;1.90;;;38.00;42.80;;;;;;5102767;28;20450;-73
2023/08/13 09:44:20;;;;;;;8.67;5.00;;;38.40;39.90;;;;;;5099672;28;20407;-73
2023/08/13 09:46:53;;;;;;;2.97;2.10;;;38.70;40.90;;;;;;5113319;28;20399;-73
2023/08/13 09:49:21;;;;;;;3.87;1.80;;;38.40;40.30;;;;;;5113534;28;20387;-73
2023/08/13 09:51:51;;;;;;;2.10;1.53;;;38.30;39.30;;;;;;5098534;28;20484;-73
2023/08/13 09:54:37;;;;;;;6.80;2.10;;;39.60;40.20;;;;;;5092901;28;20441;-73
2023/08/13 09:57:07;;;;;;;5.10;1.97;;;39.70;39.40;;;;;;5092838;28;20451;-75
2023/08/13 09:59:37;;;;;;;3.57;1.80;;;39.40;38.30;;;;;;5096506;28;20432;-74
2023/08/13 10:02:07;;;;;;;2.50;1.87;;;39.00;36.80;;;;;;5103888;28;21024;-74
2023/08/13 10:04:34;;;;;;;2.40;1.60;;;39.10;36.90;;;;;;5106558;28;20414;-74
2023/08/13 10:07:00;;;;;;;5.33;2.50;;;39.70;37.90;;;;;;5106731;28;20848;-75
2023/08/13 10:09:26;;;;;;;3.43;2.00;;;39.20;37.30;;;;;;5095829;28;20416;-74
2023/08/13 10:11:52;;;;;;;2.43;1.80;;;38.40;37.70;;;;;;5101427;28;20839;-74
2023/08/13 10:14:18;;;;;;;4.00;2.03;;;37.70;38.60;;;;;;5098957;28;20691;-75
2023/08/13 10:16:45;;;;;;;2.70;1.83;;;36.60;39.30;;;;;;5098744;28;20491;-75
2023/08/13 10:19:11;;;;;;;4.73;2.03;;;35.80;40.80;;;;;;5095557;28;20166;-73
2023/08/13 10:21:38;;;;;;;4.80;3.93;;;35.30;42.50;;;;;;5098905;28;20466;-73
2023/08/13 10:24:05;;;;;;;4.70;2.20;;;34.80;42.60;;;;;;5115793;28;20399;-75
2023/08/13 10:26:32;;;;;;;7.90;4.00;;;34.10;42.40;;;;;;5093356;28;20414;-74
2023/08/13 10:28:57;;;;;;;6.40;1.73;;;33.50;44.10;;;;;;5113451;28;20448;-73
2023/08/13 10:31:23;;;;;;;5.40;1.87;;;33.50;45.00;;;;;;5079157;28;20458;-72
2023/08/13 10:34:20;;;;;;;2.77;2.10;;;33.40;44.70;;;;;;5094400;28;20601;-73
2023/08/13 10:36:53;;;;;;;3.30;1.70;;;33.40;45.90;;;;;;5112302;28;20181;-72
2023/08/13 10:39:34;;;;;;;4.97;2.37;;;33.10;46.10;;;;;;5094626;28;21046;-72
2023/08/13 10:42:02;;;;;;;2.43;2.20;;;32.60;46.60;;;;;;5084261;28;20430;-72
2023/08/13 10:44:28;;;;;;;4.57;2.23;;;32.60;48.10;;;;;;5108669;28;20402;-72
2023/08/13 10:46:55;;;;;;;3.40;3.10;;;32.60;47.80;;;;;;5112654;28;20406;-72
2023/08/13 10:49:21;;;;;;;3.60;2.10;;;32.40;48.30;;;;;;5112736;28;20391;-73
2023/08/13 10:51:50;;;;;;;5.40;2.27;;;32.00;48.50;;;;;;5092723;28;21017;-73
2023/08/13 10:54:16;;;;;;;3.60;2.07;;;31.50;48.70;;;;;;5106662;28;20537;-73
2023/08/13 10:56:45;;;;;;;4.73;2.03;;;31.30;50.10;;;;;;5112202;28;20865;-73
2023/08/13 10:59:11;;;;;;;5.27;1.87;;;31.00;50.20;;;;;;5112572;28;20411;-73
2023/08/13 11:02:11;;;;;;;2.57;1.87;;;31.00;50.70;;;;;;5093532;28;20784;-71
2023/08/13 11:04:36;;;;;;;3.07;1.90;;;31.00;51.00;;;;;;5101563;28;20916;-74
2023/08/13 11:07:02;;;;;;;7.33;2.20;;;31.00;51.60;;;;;;5091497;28;20432;-73
2023/08/13 11:09:30;;;;;;;4.77;2.50;;;31.30;51.50;;;;;;5089257;28;20162;-74
2023/08/13 11:11:56;;;;;;;2.70;2.13;;;31.30;50.10;;;;;;5095004;28;20191;-74
2023/08/13 11:14:22;;;;;;;4.03;2.40;;;31.30;50.70;;;;;;5108239;28;20928;-74
2023/08/13 11:16:47;;;;;;;2.23;1.70;;;32.10;51.30;;;;;;5092558;28;20434;-75
2023/08/13 11:19:13;;;;;;;5.17;1.93;;;32.60;50.50;;;;;;5074821;28;20412;-75
2023/08/13 11:21:38;;;;;;;3.40;2.43;;;32.60;49.80;;;;;;5092426;28;20200;-75
2023/08/13 11:24:08;;;;;;;6.40;2.07;;;32.80;49.70;;;;;;5111997;28;20180;-74
2023/08/13 11:26:34;;;;;;;4.17;1.87;;;32.50;49.20;;;;;;5096366;28;20252;-73
2023/08/13 11:29:00;;;;;;;3.93;2.07;;;32.50;49.50;;;;;;5095630;28;20439;-74
2023/08/13 11:31:25;;;;;;;6.83;2.40;;;32.40;49.70;;;;;;5095334;28;20259;-74
2023/08/13 11:33:51;;;;;;;2.80;2.00;;;32.20;50.20;;;;;;5109942;28;20173;-73
2023/08/13 11:36:17;;;;;;;6.30;2.60;;;31.20;50.60;;;;;;5114744;28;20192;-73
2023/08/13 11:38:43;;;;;;;2.57;2.37;;;30.80;52.90;;;;;;5115442;28;20218;-73
2023/08/13 11:41:12;;;;;;;5.40;2.47;;;30.80;52.40;;;;;;5099162;28;20459;-72
2023/08/13 11:43:38;;;;;;;3.87;1.70;;;30.90;52.80;;;;;;5112820;28;20564;-73
2023/08/13 11:46:06;;;;;;;7.93;2.53;;;31.10;52.70;;;;;;5098101;28;20426;-73
2023/08/13 11:48:33;;;;;;;4.63;2.23;;;31.40;53.30;;;;;;5095659;28;20311;-72
2023/08/13 11:51:14;;;;;;;3.27;2.13;;;31.60;53.20;;;;;;5078409;28;21094;-74
2023/08/13 11:53:44;;;;;;;2.93;2.00;;;32.20;53.70;;;;;;5114668;28;20406;-74
2023/08/13 11:56:14;;;;;;;3.77;2.33;;;32.50;52.00;;;;;;5098353;28;20457;-73
2023/08/13 11:58:40;;;;;;;3.00;2.70;;;32.70;51.30;;;;;;5095901;28;20411;-74
2023/08/13 12:01:06;;;;;;;2.57;1.90;;;32.70;51.10;;;;;;5080161;28;20454;-72
2023/08/13 12:03:36;;;;;;;3.63;2.10;;;32.80;51.30;;;;;;5099344;28;20927;-70
2023/08/13 12:06:01;;;;;;;3.70;2.07;;;33.10;51.30;;;;;;5076752;28;20177;-72
2023/08/13 12:08:28;;;;;;;2.60;1.87;;;33.30;50.40;;;;;;5096122;28;20412;-72
2023/08/13 12:10:54;;;;;;;2.20;2.00;;;33.40;50.40;;;;;;5095915;28;20209;-71
2023/08/13 12:13:19;;;;;;;4.00;2.00;;;33.70;49.70;;;;;;5080832;28;20471;-72
2023/08/13 12:15:45;;;;;;;2.60;2.40;;;34.00;48.50;;;;;;5115585;28;20650;-73
2023/08/13 12:18:10;;;;;;;5.73;2.10;;;33.50;48.70;;;;;;5117005;28;20164;-72
2023/08/13 12:20:36;;;;;;;3.73;2.27;;;33.20;50.30;;;;;;5107601;28;20730;-71
2023/08/13 12:23:01;;;;;;;5.87;2.40;;;33.20;50.10;;;;;;5110916;28;20192;-72
2023/08/13 12:25:28;;;;;;;2.50;1.90;;;33.00;49.80;;;;;;5117131;28;20511;-72
2023/08/13 12:27:54;;;;;;;4.10;1.63;;;32.90;49.90;;;;;;5116891;28;20161;-71
2023/08/13 12:30:20;;;;;;;8.33;2.97;;;32.70;49.80;;;;;;5109626;28;20463;-70
2023/08/13 12:32:46;;;;;;;3.33;2.20;;;32.90;48.60;;;;;;5088856;28;20952;-71
2023/08/13 12:35:12;;;;;;;2.70;1.83;;;33.40;48.30;;;;;;5111460;28;20403;-72
2023/08/13 12:37:38;;;;;;;3.27;2.53;;;34.20;47.40;;;;;;5114830;28;20541;-73
2023/08/13 12:40:03;;;;;;;2.57;2.37;;;35.10;47.30;;;;;;5116368;28;20410;-72
2023/08/13 12:42:29;;;;;;;2.23;1.97;;;35.80;44.40;;;;;;5100881;28;20202;-71